KGPT/GPT METAR and TAF weather

Enter ICAO airport designator
Station Type Date Time Source
KGPT METAR 2019/02/17 07:53 UTC NOAA

KGPT 170753Z AUTO 18004KT 5SM BR OVC002 18/18 A2979 RMK AO2 SLP085 T01830178


Station Type Date Time Source
KGPT Decoded METAR 2019/02/17 07:53 UTC NOAA

GULFPORT-BILOXI REG AIRPORT , MS, United States (KGPT) 30-25N 089-05W 14M
Feb 17, 2019 - 02:53 AM EST / 2019.02.17 0753 UTC
Wind: from the S (180 degrees) at 5 MPH (4 KT):0
Visibility: 5 mile(s):0
Sky conditions: overcast
Weather: mist
Temperature: 64.9 F (18.3 C)
Dew Point: 64.0 F (17.8 C)
Relative Humidity: 96%
Pressure (altimeter): 29.79 in. Hg (1008 hPa)
ob: KGPT 170753Z AUTO 18004KT 5SM BR OVC002 18/18 A2979 RMK AO2 SLP085 T01830178
cycle: 8

Station Type Date Time Source
KGPT TAF 2019/02/17 06:34 UTC NOAA

TAF KGPT 170532Z 1706/1806 18005KT 1SM BR OVC002
FM171100 19005KT 1/4SM FG SCT002 OVC045
FM171600 19007KT 5SM BR SCT011 OVC080
FM171900 20007KT P6SM SCT010 BKN035
FM180300 23006KT 2SM BR OVC003


Example: see airport list